createdAt,value
2023-01-17T00:02:40.772Z,2.67
2023-01-17T00:08:02.169Z,2.68
2023-01-17T00:13:05.566Z,2.75
2023-01-17T00:18:08.305Z,2.80
2023-01-17T00:23:33.939Z,2.85
2023-01-17T00:28:36.993Z,2.86
2023-01-17T00:33:38.987Z,2.91
2023-01-17T00:38:42.061Z,2.96
2023-01-17T00:44:02.290Z,3.02
2023-01-17T00:49:25.831Z,3.06
2023-01-17T00:54:50.814Z,3.13
2023-01-17T01:00:10.973Z,3.17
2023-01-17T01:05:32.419Z,3.22
2023-01-17T01:10:54.306Z,3.18
2023-01-17T01:16:14.486Z,3.16
2023-01-17T01:21:34.821Z,3.07
2023-01-17T01:26:56.266Z,3.04
2023-01-17T01:32:16.704Z,3.04
2023-01-17T01:37:19.493Z,3.04
2023-01-17T01:42:23.811Z,3.06
2023-01-17T01:47:28.504Z,2.95
2023-01-17T01:52:32.825Z,2.93
2023-01-17T01:57:40.771Z,2.79
2023-01-17T02:02:44.547Z,2.77
2023-01-17T02:07:52.708Z,2.78
2023-01-17T02:12:57.231Z,2.52
2023-01-17T02:18:05.892Z,2.56
2023-01-17T02:23:29.107Z,2.53
2023-01-17T02:28:44.375Z,2.56
2023-01-17T02:33:53.186Z,2.66
2023-01-17T02:39:01.566Z,2.70
2023-01-17T02:44:05.277Z,2.74
2023-01-17T02:49:09.401Z,2.73
2023-01-17T02:54:25.188Z,2.70
2023-01-17T02:59:37.928Z,2.77
2023-01-17T03:04:48.106Z,2.75
2023-01-17T03:09:56.209Z,2.73
2023-01-17T03:14:58.975Z,2.65
2023-01-17T03:20:03.177Z,2.66
2023-01-17T03:25:06.624Z,2.52
2023-01-17T03:30:10.447Z,2.36
2023-01-17T03:35:14.852Z,2.44
2023-01-17T03:40:18.232Z,2.41
2023-01-17T03:45:20.998Z,2.39
2023-01-17T03:50:25.320Z,1.80
2023-01-17T03:55:28.085Z,1.29
2023-01-17T04:00:30.896Z,0.91
2023-01-17T04:05:35.288Z,1.05
2023-01-17T04:10:38.078Z,0.77
2023-01-17T04:15:40.845Z,0.62
2023-01-17T04:20:45.239Z,0.49
2023-01-17T04:25:47.998Z,0.49
2023-01-17T04:30:50.815Z,0.40
2023-01-17T04:35:55.115Z,0.36
2023-01-17T04:40:58.271Z,0.39
2023-01-17T04:46:01.260Z,0.40
2023-01-17T04:51:07.034Z,0.39
2023-01-17T04:56:09.824Z,0.48
2023-01-17T05:01:12.718Z,0.41
2023-01-17T05:06:16.917Z,0.51
2023-01-17T05:11:20.021Z,0.46
2023-01-17T05:16:22.681Z,0.53
2023-01-17T05:21:26.718Z,0.42
2023-01-17T05:26:29.434Z,0.36
2023-01-17T05:31:32.198Z,0.43
2023-01-17T05:36:36.315Z,0.41
2023-01-17T05:41:39.025Z,0.54
2023-01-17T05:46:41.927Z,0.52
2023-01-17T05:51:46.041Z,0.54
2023-01-17T05:56:48.776Z,0.56
2023-01-17T06:01:51.773Z,0.54
2023-01-17T06:06:55.969Z,0.63
2023-01-17T06:11:58.697Z,0.63
2023-01-17T06:17:01.441Z,0.69
2023-01-17T06:22:06.306Z,0.75
2023-01-17T06:27:09.902Z,0.65
2023-01-17T06:32:14.029Z,0.70
2023-01-17T06:37:18.145Z,0.66
2023-01-17T06:42:22.277Z,0.70
2023-01-17T06:47:25.133Z,0.73
2023-01-17T06:52:29.217Z,0.74
2023-01-17T06:57:31.948Z,0.76
2023-01-17T07:02:34.731Z,0.88
2023-01-17T07:07:38.912Z,0.86
2023-01-17T07:12:41.860Z,0.93
2023-01-17T07:17:44.961Z,0.96
2023-01-17T07:22:49.064Z,0.92
2023-01-17T07:27:54.513Z,0.90
2023-01-17T07:32:57.341Z,0.95
2023-01-17T07:38:01.487Z,0.96
2023-01-17T07:43:12.241Z,1.41
2023-01-17T07:48:15.587Z,1.76
2023-01-17T07:53:19.732Z,1.54
2023-01-17T07:58:23.000Z,2.42
2023-01-17T08:03:26.403Z,1.86
2023-01-17T08:08:30.564Z,1.09
2023-01-17T08:13:33.350Z,1.06
2023-01-17T08:18:36.144Z,1.01
2023-01-17T08:23:40.271Z,0.95
2023-01-17T08:28:43.017Z,1.02
2023-01-17T08:33:45.754Z,0.97
2023-01-17T08:38:52.689Z,1.15
2023-01-17T08:43:55.516Z,1.02
2023-01-17T08:49:00.015Z,1.14
2023-01-17T08:54:04.299Z,1.22
2023-01-17T08:59:07.072Z,1.19
2023-01-17T09:04:10.058Z,1.23
2023-01-17T09:09:14.194Z,1.25
2023-01-17T09:14:17.003Z,1.18
2023-01-17T09:19:19.793Z,1.24
2023-01-17T09:24:23.985Z,1.23
2023-01-17T09:29:26.708Z,1.35
2023-01-17T09:34:30.471Z,1.43
2023-01-17T09:39:34.592Z,1.77
2023-01-17T09:44:41.761Z,1.90
2023-01-17T09:49:46.284Z,1.92
2023-01-17T09:54:51.343Z,1.82
2023-01-17T10:00:03.558Z,2.09
2023-01-17T10:05:24.424Z,1.76
2023-01-17T10:10:38.619Z,1.69
2023-01-17T10:15:52.362Z,1.83
2023-01-17T10:20:58.017Z,1.88
2023-01-17T10:26:03.801Z,1.97
2023-01-17T10:31:09.437Z,1.96
2023-01-17T10:36:15.760Z,2.03
2023-01-17T10:41:25.122Z,1.99
2023-01-17T10:46:32.558Z,2.27
2023-01-17T10:51:49.772Z,2.49
2023-01-17T10:56:53.896Z,2.56
2023-01-17T11:01:56.849Z,2.31
2023-01-17T11:07:13.869Z,2.13
2023-01-17T11:12:23.287Z,2.05
2023-01-17T11:17:27.499Z,2.28
2023-01-17T11:22:30.830Z,2.33
2023-01-17T11:27:36.300Z,2.56
2023-01-17T11:32:39.240Z,2.65
2023-01-17T11:37:49.140Z,2.80
2023-01-17T11:43:02.489Z,2.82
2023-01-17T11:48:16.064Z,3.02
2023-01-17T11:53:25.404Z,2.40
2023-01-17T11:58:29.683Z,2.33
2023-01-17T12:03:49.358Z,2.38
2023-01-17T12:09:04.558Z,2.58
2023-01-17T12:14:16.008Z,2.83
2023-01-17T12:19:33.993Z,2.83
2023-01-17T12:24:45.525Z,2.90
2023-01-17T12:29:53.561Z,2.83
2023-01-17T12:35:00.611Z,2.59
2023-01-17T12:40:08.299Z,2.86
2023-01-17T12:45:15.111Z,3.01
2023-01-17T12:50:24.621Z,3.03
2023-01-17T12:55:35.666Z,3.38
2023-01-17T13:00:40.434Z,3.16
2023-01-17T13:05:46.290Z,3.38
2023-01-17T13:10:52.302Z,3.67
2023-01-17T13:15:56.995Z,3.52
2023-01-17T13:21:15.188Z,3.79
2023-01-17T13:26:24.563Z,3.68
2023-01-17T13:31:43.332Z,3.90
2023-01-17T13:37:01.483Z,3.50
2023-01-17T13:42:11.878Z,3.29
2023-01-17T13:47:38.773Z,3.32
2023-01-17T13:52:41.543Z,3.33
2023-01-17T13:57:44.753Z,3.32
2023-01-17T14:02:49.782Z,3.55
2023-01-17T14:07:57.063Z,3.60
2023-01-17T14:12:59.916Z,3.50
2023-01-17T14:18:04.879Z,3.53
2023-01-17T14:23:27.564Z,3.53
2023-01-17T14:28:32.478Z,3.37
2023-01-17T14:33:39.532Z,3.32
2023-01-17T14:38:44.463Z,3.12
2023-01-17T14:43:48.349Z,3.27
2023-01-17T14:48:53.625Z,3.29
2023-01-17T14:53:57.986Z,3.05
2023-01-17T14:59:12.373Z,3.05
2023-01-17T15:04:27.759Z,2.95
2023-01-17T15:09:34.184Z,2.90
2023-01-17T15:14:39.555Z,2.78
2023-01-17T15:19:44.951Z,2.73
2023-01-17T15:24:47.880Z,2.62
2023-01-17T15:29:50.812Z,2.49
2023-01-17T15:34:56.986Z,2.36
2023-01-17T15:40:06.034Z,2.27
2023-01-17T15:45:15.596Z,2.09
2023-01-17T15:50:30.828Z,2.04
2023-01-17T15:55:35.045Z,1.99
2023-01-17T16:00:39.525Z,1.86
2023-01-17T16:05:44.087Z,1.73
2023-01-17T16:10:46.830Z,1.71
2023-01-17T16:15:49.685Z,1.67
2023-01-17T16:20:57.989Z,1.35
2023-01-17T16:26:00.741Z,1.36
2023-01-17T16:31:03.561Z,1.21
2023-01-17T16:36:11.529Z,1.32
2023-01-17T16:41:14.277Z,1.38
2023-01-17T16:46:21.685Z,1.26
2023-01-17T16:51:25.828Z,1.10
2023-01-17T16:56:28.778Z,1.22
2023-01-17T17:01:31.742Z,0.92
2023-01-17T17:06:35.885Z,1.10
2023-01-17T17:11:38.621Z,0.91
2023-01-17T17:16:41.361Z,0.99
2023-01-17T17:21:45.914Z,0.88
2023-01-17T17:26:48.628Z,0.83
2023-01-17T17:31:51.933Z,0.77
2023-01-17T17:36:55.976Z,0.71
2023-01-17T17:41:59.751Z,0.63
2023-01-17T17:47:03.951Z,0.70
2023-01-17T17:52:09.659Z,0.60
2023-01-17T17:57:12.526Z,0.73
2023-01-17T18:02:16.373Z,0.49
2023-01-17T18:07:20.948Z,0.62
2023-01-17T18:12:23.852Z,0.59
2023-01-17T18:17:26.606Z,0.42
2023-01-17T18:22:30.748Z,0.32
2023-01-17T18:27:33.523Z,0.16
2023-01-17T18:32:38.192Z,0.25
2023-01-17T18:37:42.347Z,0.20
2023-01-17T18:42:45.248Z,0.22
2023-01-17T18:47:48.003Z,0.15
2023-01-17T18:52:53.045Z,-0.01
2023-01-17T18:57:56.257Z,0.04
2023-01-17T19:02:59.214Z,0.03
2023-01-17T19:08:03.286Z,-0.06
2023-01-17T19:13:05.997Z,-0.02
2023-01-17T19:18:09.881Z,-0.05
2023-01-17T19:23:13.948Z,-0.01
2023-01-17T19:28:16.641Z,0.02
2023-01-17T19:33:19.332Z,-0.02
2023-01-17T19:38:23.383Z,-0.20
2023-01-17T19:43:26.094Z,-0.16
2023-01-17T19:48:30.172Z,-0.19
2023-01-17T19:53:35.820Z,-0.23
2023-01-17T19:58:39.096Z,-0.32
2023-01-17T20:03:43.726Z,-0.39
2023-01-17T20:08:47.891Z,-0.55
2023-01-17T20:13:54.100Z,-0.50
2023-01-17T20:18:58.176Z,-0.59
2023-01-17T20:24:04.112Z,-0.62
2023-01-17T20:29:10.152Z,-0.63
2023-01-17T20:34:18.645Z,-0.64
2023-01-17T20:39:22.667Z,-0.60
2023-01-17T20:44:25.484Z,-0.69
2023-01-17T20:49:28.187Z,-0.73
2023-01-17T20:54:32.218Z,-0.82
2023-01-17T20:59:34.908Z,-0.74
2023-01-17T21:04:37.645Z,-0.71
2023-01-17T21:09:42.687Z,-0.76
2023-01-17T21:14:45.431Z,-0.85
2023-01-17T21:19:48.180Z,-0.98
2023-01-17T21:24:53.992Z,-0.95
2023-01-17T21:29:57.040Z,-1.03
2023-01-17T21:34:59.755Z,-1.05
2023-01-17T21:40:05.309Z,-1.15
2023-01-17T21:45:08.395Z,-1.21
2023-01-17T21:50:17.272Z,-1.19
2023-01-17T21:55:46.576Z,-1.19
2023-01-17T22:00:49.520Z,-1.10
2023-01-17T22:05:52.215Z,-1.14
2023-01-17T22:10:56.318Z,-1.17
2023-01-17T22:16:00.229Z,-1.21
2023-01-17T22:21:06.463Z,-1.40
2023-01-17T22:26:11.703Z,-1.56
2023-01-17T22:31:18.998Z,-1.35
2023-01-17T22:36:23.145Z,-1.28
2023-01-17T22:41:29.703Z,-1.44
2023-01-17T22:46:34.045Z,-1.42
2023-01-17T22:51:37.956Z,-1.51
2023-01-17T22:56:42.083Z,-1.56
2023-01-17T23:01:44.815Z,-1.42
2023-01-17T23:06:47.515Z,-1.42
2023-01-17T23:11:53.990Z,-1.50
2023-01-17T23:17:15.623Z,-1.54
2023-01-17T23:22:20.204Z,-1.67
2023-01-17T23:27:44.165Z,-1.59
2023-01-17T23:32:49.011Z,-1.54
2023-01-17T23:38:09.098Z,-1.61
2023-01-17T23:43:24.961Z,-1.63
2023-01-17T23:48:27.968Z,-1.62
2023-01-17T23:53:30.684Z,-1.69
2023-01-17T23:58:35.061Z,-1.72
